sensor_id;sensor_type;location;lat;lon;timestamp;P1;durP1;ratioP1;P2;durP2;ratioP2
20611;SDS011;10465;42.686;23.364;2023-08-30T00:00:43;7.15;;;4.70;;
20611;SDS011;10465;42.686;23.364;2023-08-30T00:03:10;5.63;;;4.65;;
20611;SDS011;10465;42.686;23.364;2023-08-30T00:05:38;7.55;;;5.05;;
20611;SDS011;10465;42.686;23.364;2023-08-30T00:08:05;5.25;;;4.43;;
20611;SDS011;10465;42.686;23.364;2023-08-30T00:10:31;6.82;;;4.72;;
20611;SDS011;10465;42.686;23.364;2023-08-30T00:12:56;7.18;;;4.43;;
20611;SDS011;10465;42.686;23.364;2023-08-30T00:15:22;10.30;;;5.18;;
20611;SDS011;10465;42.686;23.364;2023-08-30T00:17:47;6.25;;;4.10;;
20611;SDS011;10465;42.686;23.364;2023-08-30T00:20:13;7.82;;;4.43;;
20611;SDS011;10465;42.686;23.364;2023-08-30T00:22:39;5.57;;;4.25;;
20611;SDS011;10465;42.686;23.364;2023-08-30T00:25:04;6.07;;;4.13;;
20611;SDS011;10465;42.686;23.364;2023-08-30T00:27:30;5.78;;;3.60;;
20611;SDS011;10465;42.686;23.364;2023-08-30T00:29:55;5.45;;;3.67;;
20611;SDS011;10465;42.686;23.364;2023-08-30T00:32:23;8.23;;;4.15;;
20611;SDS011;10465;42.686;23.364;2023-08-30T00:34:51;6.25;;;4.28;;
20611;SDS011;10465;42.686;23.364;2023-08-30T00:37:17;5.50;;;4.07;;
20611;SDS011;10465;42.686;23.364;2023-08-30T00:39:43;7.05;;;4.07;;
20611;SDS011;10465;42.686;23.364;2023-08-30T00:42:08;6.10;;;3.88;;
20611;SDS011;10465;42.686;23.364;2023-08-30T00:44:34;5.45;;;3.60;;
20611;SDS011;10465;42.686;23.364;2023-08-30T00:47:01;5.30;;;3.45;;
20611;SDS011;10465;42.686;23.364;2023-08-30T00:49:31;4.07;;;3.45;;
20611;SDS011;10465;42.686;23.364;2023-08-30T00:52:01;4.60;;;3.80;;
20611;SDS011;10465;42.686;23.364;2023-08-30T00:54:31;5.30;;;3.72;;
20611;SDS011;10465;42.686;23.364;2023-08-30T00:56:57;5.70;;;3.95;;
20611;SDS011;10465;42.686;23.364;2023-08-30T00:59:24;5.05;;;3.67;;
20611;SDS011;10465;42.686;23.364;2023-08-30T01:01:51;6.60;;;3.83;;
20611;SDS011;10465;42.686;23.364;2023-08-30T01:04:18;5.35;;;3.42;;
20611;SDS011;10465;42.686;23.364;2023-08-30T01:06:44;4.95;;;3.58;;
20611;SDS011;10465;42.686;23.364;2023-08-30T01:09:10;5.20;;;3.33;;
20611;SDS011;10465;42.686;23.364;2023-08-30T01:11:43;10.27;;;3.60;;
20611;SDS011;10465;42.686;23.364;2023-08-30T01:14:16;4.50;;;3.13;;
20611;SDS011;10465;42.686;23.364;2023-08-30T01:16:46;6.70;;;3.92;;
20611;SDS011;10465;42.686;23.364;2023-08-30T01:19:21;5.57;;;3.60;;
20611;SDS011;10465;42.686;23.364;2023-08-30T01:22:19;5.68;;;3.50;;
20611;SDS011;10465;42.686;23.364;2023-08-30T01:28:07;5.32;;;3.40;;
20611;SDS011;10465;42.686;23.364;2023-08-30T01:30:34;5.97;;;3.40;;
20611;SDS011;10465;42.686;23.364;2023-08-30T01:33:03;4.60;;;3.35;;
20611;SDS011;10465;42.686;23.364;2023-08-30T01:35:30;5.65;;;3.22;;
20611;SDS011;10465;42.686;23.364;2023-08-30T01:38:02;4.85;;;3.58;;
20611;SDS011;10465;42.686;23.364;2023-08-30T01:40:29;5.20;;;3.30;;
20611;SDS011;10465;42.686;23.364;2023-08-30T01:42:57;10.65;;;4.13;;
20611;SDS011;10465;42.686;23.364;2023-08-30T01:45:23;4.63;;;3.22;;
20611;SDS011;10465;42.686;23.364;2023-08-30T01:47:51;4.25;;;3.20;;
20611;SDS011;10465;42.686;23.364;2023-08-30T01:50:17;4.82;;;3.05;;
20611;SDS011;10465;42.686;23.364;2023-08-30T01:52:45;5.78;;;3.33;;
20611;SDS011;10465;42.686;23.364;2023-08-30T01:55:11;4.53;;;3.22;;
20611;SDS011;10465;42.686;23.364;2023-08-30T01:57:40;3.97;;;3.22;;
20611;SDS011;10465;42.686;23.364;2023-08-30T02:00:07;4.25;;;3.13;;
20611;SDS011;10465;42.686;23.364;2023-08-30T02:02:33;5.63;;;3.40;;
20611;SDS011;10465;42.686;23.364;2023-08-30T02:04:58;6.10;;;3.60;;
20611;SDS011;10465;42.686;23.364;2023-08-30T02:07:33;3.28;;;2.92;;
20611;SDS011;10465;42.686;23.364;2023-08-30T02:10:06;7.13;;;4.70;;
20611;SDS011;10465;42.686;23.364;2023-08-30T02:12:47;4.68;;;3.80;;
20611;SDS011;10465;42.686;23.364;2023-08-30T02:15:14;4.13;;;3.00;;
20611;SDS011;10465;42.686;23.364;2023-08-30T02:17:42;4.18;;;3.13;;
20611;SDS011;10465;42.686;23.364;2023-08-30T02:20:09;5.97;;;3.63;;
20611;SDS011;10465;42.686;23.364;2023-08-30T02:22:34;5.05;;;3.58;;
20611;SDS011;10465;42.686;23.364;2023-08-30T02:25:01;3.75;;;3.10;;
20611;SDS011;10465;42.686;23.364;2023-08-30T02:27:32;4.72;;;3.53;;
20611;SDS011;10465;42.686;23.364;2023-08-30T02:29:58;5.93;;;3.80;;
20611;SDS011;10465;42.686;23.364;2023-08-30T02:32:27;5.93;;;3.72;;
20611;SDS011;10465;42.686;23.364;2023-08-30T02:34:53;5.15;;;3.90;;
20611;SDS011;10465;42.686;23.364;2023-08-30T02:37:19;8.30;;;3.50;;
20611;SDS011;10465;42.686;23.364;2023-08-30T02:39:46;6.53;;;3.45;;
20611;SDS011;10465;42.686;23.364;2023-08-30T02:42:11;5.47;;;3.28;;
20611;SDS011;10465;42.686;23.364;2023-08-30T02:44:36;5.00;;;3.80;;
20611;SDS011;10465;42.686;23.364;2023-08-30T02:47:03;5.03;;;3.67;;
20611;SDS011;10465;42.686;23.364;2023-08-30T02:49:29;7.05;;;3.60;;
20611;SDS011;10465;42.686;23.364;2023-08-30T02:51:54;7.68;;;4.03;;
20611;SDS011;10465;42.686;23.364;2023-08-30T02:54:21;7.05;;;3.22;;
20611;SDS011;10465;42.686;23.364;2023-08-30T02:56:47;5.50;;;3.60;;
20611;SDS011;10465;42.686;23.364;2023-08-30T02:59:13;5.13;;;3.60;;
20611;SDS011;10465;42.686;23.364;2023-08-30T03:01:39;5.45;;;3.83;;
20611;SDS011;10465;42.686;23.364;2023-08-30T03:04:05;12.55;;;7.95;;
20611;SDS011;10465;42.686;23.364;2023-08-30T03:06:34;8.32;;;5.45;;
20611;SDS011;10465;42.686;23.364;2023-08-30T03:09:00;5.55;;;4.18;;
20611;SDS011;10465;42.686;23.364;2023-08-30T03:11:27;6.18;;;3.90;;
20611;SDS011;10465;42.686;23.364;2023-08-30T03:13:53;7.38;;;3.80;;
20611;SDS011;10465;42.686;23.364;2023-08-30T03:16:19;6.82;;;3.72;;
20611;SDS011;10465;42.686;23.364;2023-08-30T03:18:46;5.25;;;3.55;;
20611;SDS011;10465;42.686;23.364;2023-08-30T03:21:12;9.80;;;4.40;;
20611;SDS011;10465;42.686;23.364;2023-08-30T03:23:38;5.07;;;3.97;;
20611;SDS011;10465;42.686;23.364;2023-08-30T03:28:33;6.35;;;4.05;;
20611;SDS011;10465;42.686;23.364;2023-08-30T03:30:58;5.47;;;4.30;;
20611;SDS011;10465;42.686;23.364;2023-08-30T03:33:24;5.80;;;4.30;;
20611;SDS011;10465;42.686;23.364;2023-08-30T03:35:49;8.73;;;4.75;;
20611;SDS011;10465;42.686;23.364;2023-08-30T03:38:15;7.43;;;4.90;;
20611;SDS011;10465;42.686;23.364;2023-08-30T03:40:40;6.45;;;4.57;;
20611;SDS011;10465;42.686;23.364;2023-08-30T03:43:05;7.78;;;4.47;;
20611;SDS011;10465;42.686;23.364;2023-08-30T03:45:34;6.97;;;4.53;;
20611;SDS011;10465;42.686;23.364;2023-08-30T03:48:00;8.38;;;4.63;;
20611;SDS011;10465;42.686;23.364;2023-08-30T03:50:26;8.00;;;5.43;;
20611;SDS011;10465;42.686;23.364;2023-08-30T03:52:51;6.90;;;5.28;;
20611;SDS011;10465;42.686;23.364;2023-08-30T03:55:17;9.13;;;5.60;;
20611;SDS011;10465;42.686;23.364;2023-08-30T03:57:42;8.43;;;5.60;;
20611;SDS011;10465;42.686;23.364;2023-08-30T04:00:08;10.15;;;5.40;;
20611;SDS011;10465;42.686;23.364;2023-08-30T04:02:34;7.57;;;6.18;;
20611;SDS011;10465;42.686;23.364;2023-08-30T04:04:59;8.13;;;5.35;;
20611;SDS011;10465;42.686;23.364;2023-08-30T04:07:25;10.48;;;6.10;;
20611;SDS011;10465;42.686;23.364;2023-08-30T04:09:50;9.20;;;5.68;;
20611;SDS011;10465;42.686;23.364;2023-08-30T04:12:15;9.02;;;5.97;;
20611;SDS011;10465;42.686;23.364;2023-08-30T04:14:41;8.10;;;5.38;;
20611;SDS011;10465;42.686;23.364;2023-08-30T04:17:06;8.98;;;5.75;;
20611;SDS011;10465;42.686;23.364;2023-08-30T04:19:32;8.43;;;4.95;;
20611;SDS011;10465;42.686;23.364;2023-08-30T04:21:57;8.68;;;5.93;;
20611;SDS011;10465;42.686;23.364;2023-08-30T04:24:22;8.65;;;5.38;;
20611;SDS011;10465;42.686;23.364;2023-08-30T04:26:48;10.15;;;7.28;;
20611;SDS011;10465;42.686;23.364;2023-08-30T04:29:16;9.98;;;5.90;;
20611;SDS011;10465;42.686;23.364;2023-08-30T04:31:43;8.90;;;6.32;;
20611;SDS011;10465;42.686;23.364;2023-08-30T04:34:08;8.38;;;5.50;;
20611;SDS011;10465;42.686;23.364;2023-08-30T04:36:34;11.10;;;6.55;;
20611;SDS011;10465;42.686;23.364;2023-08-30T04:38:59;8.90;;;5.50;;
20611;SDS011;10465;42.686;23.364;2023-08-30T04:41:25;9.55;;;5.03;;
20611;SDS011;10465;42.686;23.364;2023-08-30T04:43:50;6.82;;;5.13;;
20611;SDS011;10465;42.686;23.364;2023-08-30T04:46:15;8.40;;;5.55;;
20611;SDS011;10465;42.686;23.364;2023-08-30T04:48:41;12.20;;;5.35;;
20611;SDS011;10465;42.686;23.364;2023-08-30T04:51:06;11.20;;;6.97;;
20611;SDS011;10465;42.686;23.364;2023-08-30T04:53:32;11.07;;;7.07;;
20611;SDS011;10465;42.686;23.364;2023-08-30T04:55:57;10.60;;;6.38;;
20611;SDS011;10465;42.686;23.364;2023-08-30T04:58:24;8.45;;;5.53;;
20611;SDS011;10465;42.686;23.364;2023-08-30T05:00:49;10.02;;;5.65;;
20611;SDS011;10465;42.686;23.364;2023-08-30T05:03:14;12.15;;;6.20;;
20611;SDS011;10465;42.686;23.364;2023-08-30T05:05:44;11.70;;;7.25;;
20611;SDS011;10465;42.686;23.364;2023-08-30T05:08:10;10.52;;;7.18;;
20611;SDS011;10465;42.686;23.364;2023-08-30T05:10:36;7.60;;;5.28;;
20611;SDS011;10465;42.686;23.364;2023-08-30T05:13:02;8.02;;;6.18;;
20611;SDS011;10465;42.686;23.364;2023-08-30T05:15:28;7.60;;;5.30;;
20611;SDS011;10465;42.686;23.364;2023-08-30T05:17:54;6.85;;;4.63;;
20611;SDS011;10465;42.686;23.364;2023-08-30T05:20:19;11.75;;;6.07;;
20611;SDS011;10465;42.686;23.364;2023-08-30T05:22:45;8.27;;;5.05;;
20611;SDS011;10465;42.686;23.364;2023-08-30T05:25:10;8.18;;;5.70;;
20611;SDS011;10465;42.686;23.364;2023-08-30T05:27:36;8.20;;;5.85;;
20611;SDS011;10465;42.686;23.364;2023-08-30T05:30:01;8.55;;;5.53;;
20611;SDS011;10465;42.686;23.364;2023-08-30T05:32:28;7.32;;;5.25;;
20611;SDS011;10465;42.686;23.364;2023-08-30T05:34:53;8.88;;;5.38;;
20611;SDS011;10465;42.686;23.364;2023-08-30T05:37:19;10.32;;;6.68;;
20611;SDS011;10465;42.686;23.364;2023-08-30T05:39:44;8.70;;;4.25;;
20611;SDS011;10465;42.686;23.364;2023-08-30T05:42:09;7.20;;;3.55;;
20611;SDS011;10465;42.686;23.364;2023-08-30T05:44:35;5.15;;;3.00;;
20611;SDS011;10465;42.686;23.364;2023-08-30T05:47:00;6.05;;;2.45;;
20611;SDS011;10465;42.686;23.364;2023-08-30T05:49:26;3.67;;;2.20;;
20611;SDS011;10465;42.686;23.364;2023-08-30T05:51:51;3.45;;;2.28;;
20611;SDS011;10465;42.686;23.364;2023-08-30T05:54:17;4.80;;;2.35;;
20611;SDS011;10465;42.686;23.364;2023-08-30T05:56:42;3.63;;;2.58;;
20611;SDS011;10465;42.686;23.364;2023-08-30T05:59:08;2.67;;;1.98;;
20611;SDS011;10465;42.686;23.364;2023-08-30T06:01:34;5.60;;;2.63;;
20611;SDS011;10465;42.686;23.364;2023-08-30T06:04:00;4.18;;;2.15;;
20611;SDS011;10465;42.686;23.364;2023-08-30T06:06:25;4.05;;;2.83;;
20611;SDS011;10465;42.686;23.364;2023-08-30T06:08:52;3.38;;;2.63;;
20611;SDS011;10465;42.686;23.364;2023-08-30T06:11:18;3.30;;;2.65;;
20611;SDS011;10465;42.686;23.364;2023-08-30T06:13:43;2.72;;;2.00;;
20611;SDS011;10465;42.686;23.364;2023-08-30T06:16:09;4.05;;;2.55;;
20611;SDS011;10465;42.686;23.364;2023-08-30T06:18:34;4.35;;;2.30;;
20611;SDS011;10465;42.686;23.364;2023-08-30T06:21:02;5.18;;;2.45;;
20611;SDS011;10465;42.686;23.364;2023-08-30T06:23:29;5.63;;;2.55;;
20611;SDS011;10465;42.686;23.364;2023-08-30T06:25:55;5.57;;;3.00;;
20611;SDS011;10465;42.686;23.364;2023-08-30T06:28:21;6.50;;;3.95;;
20611;SDS011;10465;42.686;23.364;2023-08-30T06:30:47;5.88;;;3.33;;
20611;SDS011;10465;42.686;23.364;2023-08-30T06:33:13;4.35;;;2.67;;
20611;SDS011;10465;42.686;23.364;2023-08-30T06:35:38;6.60;;;2.88;;
20611;SDS011;10465;42.686;23.364;2023-08-30T06:38:04;3.33;;;2.67;;
20611;SDS011;10465;42.686;23.364;2023-08-30T06:40:30;5.20;;;3.72;;
20611;SDS011;10465;42.686;23.364;2023-08-30T06:42:55;4.70;;;3.38;;
20611;SDS011;10465;42.686;23.364;2023-08-30T06:45:22;7.47;;;4.13;;
20611;SDS011;10465;42.686;23.364;2023-08-30T06:47:51;5.03;;;3.10;;
20611;SDS011;10465;42.686;23.364;2023-08-30T06:50:21;5.65;;;3.33;;
20611;SDS011;10465;42.686;23.364;2023-08-30T06:52:47;3.83;;;3.45;;
20611;SDS011;10465;42.686;23.364;2023-08-30T06:55:12;6.20;;;3.70;;
20611;SDS011;10465;42.686;23.364;2023-08-30T06:57:38;4.55;;;3.15;;
20611;SDS011;10465;42.686;23.364;2023-08-30T07:00:03;7.40;;;4.53;;
20611;SDS011;10465;42.686;23.364;2023-08-30T07:02:33;4.53;;;3.67;;
20611;SDS011;10465;42.686;23.364;2023-08-30T07:05:00;6.78;;;4.00;;
20611;SDS011;10465;42.686;23.364;2023-08-30T07:07:26;9.27;;;5.50;;
20611;SDS011;10465;42.686;23.364;2023-08-30T07:09:51;7.10;;;3.88;;
20611;SDS011;10465;42.686;23.364;2023-08-30T07:12:17;5.00;;;3.17;;
20611;SDS011;10465;42.686;23.364;2023-08-30T07:14:42;4.22;;;2.95;;
20611;SDS011;10465;42.686;23.364;2023-08-30T07:17:08;4.80;;;3.55;;
20611;SDS011;10465;42.686;23.364;2023-08-30T07:19:33;6.68;;;3.70;;
20611;SDS011;10465;42.686;23.364;2023-08-30T07:21:58;4.53;;;3.05;;
20611;SDS011;10465;42.686;23.364;2023-08-30T07:24:24;4.70;;;3.28;;
20611;SDS011;10465;42.686;23.364;2023-08-30T07:26:50;6.85;;;3.63;;
20611;SDS011;10465;42.686;23.364;2023-08-30T07:29:15;7.32;;;3.40;;
20611;SDS011;10465;42.686;23.364;2023-08-30T07:31:41;5.25;;;3.20;;
20611;SDS011;10465;42.686;23.364;2023-08-30T07:34:06;6.85;;;3.22;;
20611;SDS011;10465;42.686;23.364;2023-08-30T07:36:33;4.47;;;3.33;;
20611;SDS011;10465;42.686;23.364;2023-08-30T07:38:58;5.60;;;3.25;;
20611;SDS011;10465;42.686;23.364;2023-08-30T07:41:24;4.85;;;3.53;;
20611;SDS011;10465;42.686;23.364;2023-08-30T07:43:49;4.82;;;3.22;;
20611;SDS011;10465;42.686;23.364;2023-08-30T07:46:15;6.07;;;3.45;;
20611;SDS011;10465;42.686;23.364;2023-08-30T07:48:40;6.15;;;3.13;;
20611;SDS011;10465;42.686;23.364;2023-08-30T07:51:06;4.90;;;3.05;;
20611;SDS011;10465;42.686;23.364;2023-08-30T07:53:31;8.32;;;3.03;;
20611;SDS011;10465;42.686;23.364;2023-08-30T07:55:57;8.25;;;3.47;;
20611;SDS011;10465;42.686;23.364;2023-08-30T07:58:22;4.47;;;3.15;;
20611;SDS011;10465;42.686;23.364;2023-08-30T08:00:51;3.65;;;2.92;;
20611;SDS011;10465;42.686;23.364;2023-08-30T08:03:18;4.30;;;2.90;;
20611;SDS011;10465;42.686;23.364;2023-08-30T08:05:45;5.10;;;2.80;;
20611;SDS011;10465;42.686;23.364;2023-08-30T08:08:10;4.68;;;3.10;;
20611;SDS011;10465;42.686;23.364;2023-08-30T08:10:36;7.50;;;3.40;;
20611;SDS011;10465;42.686;23.364;2023-08-30T08:13:01;8.25;;;3.97;;
20611;SDS011;10465;42.686;23.364;2023-08-30T08:15:29;5.30;;;3.20;;
20611;SDS011;10465;42.686;23.364;2023-08-30T08:17:58;4.72;;;2.70;;
20611;SDS011;10465;42.686;23.364;2023-08-30T08:20:24;4.40;;;2.78;;
20611;SDS011;10465;42.686;23.364;2023-08-30T08:22:50;3.50;;;1.95;;
20611;SDS011;10465;42.686;23.364;2023-08-30T08:25:15;3.08;;;2.08;;
20611;SDS011;10465;42.686;23.364;2023-08-30T08:27:41;2.55;;;2.05;;
20611;SDS011;10465;42.686;23.364;2023-08-30T08:30:07;3.60;;;2.13;;
20611;SDS011;10465;42.686;23.364;2023-08-30T08:32:33;4.90;;;1.98;;
20611;SDS011;10465;42.686;23.364;2023-08-30T08:34:58;3.22;;;1.95;;
20611;SDS011;10465;42.686;23.364;2023-08-30T08:37:24;3.20;;;1.67;;
20611;SDS011;10465;42.686;23.364;2023-08-30T08:39:49;3.47;;;1.63;;
20611;SDS011;10465;42.686;23.364;2023-08-30T08:42:19;3.08;;;2.25;;
20611;SDS011;10465;42.686;23.364;2023-08-30T08:44:50;3.17;;;2.17;;
20611;SDS011;10465;42.686;23.364;2023-08-30T08:47:17;3.65;;;2.13;;
20611;SDS011;10465;42.686;23.364;2023-08-30T08:49:44;3.30;;;1.63;;
20611;SDS011;10465;42.686;23.364;2023-08-30T08:52:11;3.15;;;2.03;;
20611;SDS011;10465;42.686;23.364;2023-08-30T08:54:39;2.92;;;2.10;;
20611;SDS011;10465;42.686;23.364;2023-08-30T08:57:07;3.53;;;1.88;;
20611;SDS011;10465;42.686;23.364;2023-08-30T08:59:32;4.38;;;2.00;;
20611;SDS011;10465;42.686;23.364;2023-08-30T09:01:59;3.40;;;2.20;;
20611;SDS011;10465;42.686;23.364;2023-08-30T09:04:25;3.83;;;1.95;;
20611;SDS011;10465;42.686;23.364;2023-08-30T09:06:51;2.78;;;1.70;;
20611;SDS011;10465;42.686;23.364;2023-08-30T09:09:17;3.65;;;1.83;;
20611;SDS011;10465;42.686;23.364;2023-08-30T09:11:43;4.22;;;1.90;;
20611;SDS011;10465;42.686;23.364;2023-08-30T09:14:08;2.30;;;1.80;;
20611;SDS011;10465;42.686;23.364;2023-08-30T09:16:34;4.15;;;2.08;;
20611;SDS011;10465;42.686;23.364;2023-08-30T09:19:00;3.90;;;1.90;;
20611;SDS011;10465;42.686;23.364;2023-08-30T09:21:26;3.22;;;1.90;;
20611;SDS011;10465;42.686;23.364;2023-08-30T09:26:24;5.20;;;2.30;;
20611;SDS011;10465;42.686;23.364;2023-08-30T09:28:50;3.40;;;2.38;;
20611;SDS011;10465;42.686;23.364;2023-08-30T09:31:18;4.32;;;2.63;;
20611;SDS011;10465;42.686;23.364;2023-08-30T09:33:47;6.90;;;2.47;;
20611;SDS011;10465;42.686;23.364;2023-08-30T09:36:16;2.97;;;1.90;;
20611;SDS011;10465;42.686;23.364;2023-08-30T09:38:47;3.33;;;2.30;;
20611;SDS011;10465;42.686;23.364;2023-08-30T09:41:13;4.45;;;2.53;;
20611;SDS011;10465;42.686;23.364;2023-08-30T09:43:44;3.22;;;2.05;;
20611;SDS011;10465;42.686;23.364;2023-08-30T09:46:09;5.28;;;2.58;;
20611;SDS011;10465;42.686;23.364;2023-08-30T09:48:35;3.30;;;2.80;;
20611;SDS011;10465;42.686;23.364;2023-08-30T09:51:02;3.83;;;2.60;;
20611;SDS011;10465;42.686;23.364;2023-08-30T09:53:32;3.80;;;2.60;;
20611;SDS011;10465;42.686;23.364;2023-08-30T09:56:05;3.38;;;2.28;;
20611;SDS011;10465;42.686;23.364;2023-08-30T09:58:33;4.35;;;2.17;;
20611;SDS011;10465;42.686;23.364;2023-08-30T10:00:59;3.58;;;2.35;;
20611;SDS011;10465;42.686;23.364;2023-08-30T10:03:28;4.03;;;2.13;;
20611;SDS011;10465;42.686;23.364;2023-08-30T10:05:55;2.90;;;2.28;;
20611;SDS011;10465;42.686;23.364;2023-08-30T10:08:21;3.25;;;2.30;;
20611;SDS011;10465;42.686;23.364;2023-08-30T10:10:49;3.20;;;2.33;;
20611;SDS011;10465;42.686;23.364;2023-08-30T10:13:15;3.60;;;2.58;;
20611;SDS011;10465;42.686;23.364;2023-08-30T10:15:45;2.92;;;2.00;;
20611;SDS011;10465;42.686;23.364;2023-08-30T10:18:15;3.47;;;2.25;;
20611;SDS011;10465;42.686;23.364;2023-08-30T10:20:44;3.67;;;2.38;;
20611;SDS011;10465;42.686;23.364;2023-08-30T10:23:10;2.55;;;2.35;;
20611;SDS011;10465;42.686;23.364;2023-08-30T10:25:36;5.13;;;2.60;;
20611;SDS011;10465;42.686;23.364;2023-08-30T10:28:03;4.18;;;2.60;;
20611;SDS011;10465;42.686;23.364;2023-08-30T10:30:29;4.03;;;2.78;;
20611;SDS011;10465;42.686;23.364;2023-08-30T10:32:55;3.65;;;2.53;;
20611;SDS011;10465;42.686;23.364;2023-08-30T10:35:21;4.32;;;2.38;;
20611;SDS011;10465;42.686;23.364;2023-08-30T10:37:56;4.30;;;2.40;;
20611;SDS011;10465;42.686;23.364;2023-08-30T10:40:24;4.65;;;2.78;;
20611;SDS011;10465;42.686;23.364;2023-08-30T10:43:02;4.47;;;2.33;;
20611;SDS011;10465;42.686;23.364;2023-08-30T10:45:29;2.85;;;2.47;;
20611;SDS011;10465;42.686;23.364;2023-08-30T10:47:55;4.45;;;2.75;;
20611;SDS011;10465;42.686;23.364;2023-08-30T10:50:29;4.80;;;2.63;;
20611;SDS011;10465;42.686;23.364;2023-08-30T10:52:56;34.25;;;18.48;;
20611;SDS011;10465;42.686;23.364;2023-08-30T10:55:22;99.65;;;43.40;;
20611;SDS011;10465;42.686;23.364;2023-08-30T10:57:57;25.38;;;13.02;;
20611;SDS011;10465;42.686;23.364;2023-08-30T11:00:24;32.72;;;13.30;;
20611;SDS011;10465;42.686;23.364;2023-08-30T11:02:50;10.50;;;5.72;;
20611;SDS011;10465;42.686;23.364;2023-08-30T11:05:17;4.00;;;2.95;;
20611;SDS011;10465;42.686;23.364;2023-08-30T11:07:49;5.35;;;3.20;;
20611;SDS011;10465;42.686;23.364;2023-08-30T11:10:16;4.22;;;3.13;;
20611;SDS011;10465;42.686;23.364;2023-08-30T11:12:43;4.70;;;3.00;;
20611;SDS011;10465;42.686;23.364;2023-08-30T11:15:10;4.90;;;3.13;;
20611;SDS011;10465;42.686;23.364;2023-08-30T11:17:36;5.20;;;3.58;;
20611;SDS011;10465;42.686;23.364;2023-08-30T11:20:08;4.35;;;3.22;;
20611;SDS011;10465;42.686;23.364;2023-08-30T11:22:39;3.92;;;2.92;;
20611;SDS011;10465;42.686;23.364;2023-08-30T11:25:09;3.80;;;3.03;;
20611;SDS011;10465;42.686;23.364;2023-08-30T11:27:36;5.53;;;3.88;;
20611;SDS011;10465;42.686;23.364;2023-08-30T11:30:03;8.75;;;3.97;;
20611;SDS011;10465;42.686;23.364;2023-08-30T11:32:40;6.82;;;4.50;;
20611;SDS011;10465;42.686;23.364;2023-08-30T11:35:09;7.25;;;4.55;;
20611;SDS011;10465;42.686;23.364;2023-08-30T11:37:35;6.47;;;4.05;;
20611;SDS011;10465;42.686;23.364;2023-08-30T11:40:02;7.47;;;3.25;;
20611;SDS011;10465;42.686;23.364;2023-08-30T11:42:30;5.70;;;3.15;;
20611;SDS011;10465;42.686;23.364;2023-08-30T11:44:55;3.83;;;2.90;;
20611;SDS011;10465;42.686;23.364;2023-08-30T11:47:23;5.00;;;3.28;;
20611;SDS011;10465;42.686;23.364;2023-08-30T11:49:52;5.95;;;3.58;;
20611;SDS011;10465;42.686;23.364;2023-08-30T11:52:18;4.63;;;3.13;;
20611;SDS011;10465;42.686;23.364;2023-08-30T11:54:46;4.68;;;3.63;;
20611;SDS011;10465;42.686;23.364;2023-08-30T11:57:12;5.13;;;3.00;;
20611;SDS011;10465;42.686;23.364;2023-08-30T11:59:38;7.28;;;3.80;;
20611;SDS011;10465;42.686;23.364;2023-08-30T12:02:04;5.45;;;3.63;;
20611;SDS011;10465;42.686;23.364;2023-08-30T12:04:31;5.88;;;2.75;;
20611;SDS011;10465;42.686;23.364;2023-08-30T12:06:57;4.57;;;3.10;;
20611;SDS011;10465;42.686;23.364;2023-08-30T12:09:29;3.55;;;2.85;;
20611;SDS011;10465;42.686;23.364;2023-08-30T12:12:04;4.68;;;3.38;;
20611;SDS011;10465;42.686;23.364;2023-08-30T12:14:33;4.95;;;3.15;;
20611;SDS011;10465;42.686;23.364;2023-08-30T12:17:00;6.72;;;3.42;;
20611;SDS011;10465;42.686;23.364;2023-08-30T12:19:27;5.60;;;3.00;;
20611;SDS011;10465;42.686;23.364;2023-08-30T12:21:53;3.10;;;2.70;;
20611;SDS011;10465;42.686;23.364;2023-08-30T12:24:19;4.85;;;3.20;;
20611;SDS011;10465;42.686;23.364;2023-08-30T12:26:45;4.45;;;3.45;;
20611;SDS011;10465;42.686;23.364;2023-08-30T12:29:10;4.50;;;3.33;;
20611;SDS011;10465;42.686;23.364;2023-08-30T12:31:35;5.22;;;3.45;;
20611;SDS011;10465;42.686;23.364;2023-08-30T12:34:02;3.33;;;3.00;;
20611;SDS011;10465;42.686;23.364;2023-08-30T12:36:28;4.60;;;3.15;;
20611;SDS011;10465;42.686;23.364;2023-08-30T12:38:53;5.47;;;3.30;;
20611;SDS011;10465;42.686;23.364;2023-08-30T12:41:19;3.80;;;3.17;;
20611;SDS011;10465;42.686;23.364;2023-08-30T12:43:46;8.70;;;4.00;;
20611;SDS011;10465;42.686;23.364;2023-08-30T12:46:12;4.97;;;3.55;;
20611;SDS011;10465;42.686;23.364;2023-08-30T12:48:37;4.55;;;3.30;;
20611;SDS011;10465;42.686;23.364;2023-08-30T12:51:03;6.45;;;3.42;;
20611;SDS011;10465;42.686;23.364;2023-08-30T12:53:28;5.70;;;2.97;;
20611;SDS011;10465;42.686;23.364;2023-08-30T12:55:54;5.88;;;3.40;;
20611;SDS011;10465;42.686;23.364;2023-08-30T12:58:20;4.85;;;2.75;;
20611;SDS011;10465;42.686;23.364;2023-08-30T13:00:45;3.95;;;2.40;;
20611;SDS011;10465;42.686;23.364;2023-08-30T13:03:11;3.55;;;2.60;;
20611;SDS011;10465;42.686;23.364;2023-08-30T13:05:36;3.78;;;2.83;;
20611;SDS011;10465;42.686;23.364;2023-08-30T13:08:02;4.13;;;3.38;;
20611;SDS011;10465;42.686;23.364;2023-08-30T13:10:28;4.47;;;3.42;;
20611;SDS011;10465;42.686;23.364;2023-08-30T13:12:53;4.18;;;3.65;;
20611;SDS011;10465;42.686;23.364;2023-08-30T13:15:19;4.10;;;3.58;;
20611;SDS011;10465;42.686;23.364;2023-08-30T13:17:45;5.47;;;3.33;;
20611;SDS011;10465;42.686;23.364;2023-08-30T13:20:11;4.53;;;3.38;;
20611;SDS011;10465;42.686;23.364;2023-08-30T13:22:36;5.70;;;4.43;;
20611;SDS011;10465;42.686;23.364;2023-08-30T13:25:02;5.07;;;3.30;;
20611;SDS011;10465;42.686;23.364;2023-08-30T13:27:29;4.75;;;2.78;;
20611;SDS011;10465;42.686;23.364;2023-08-30T13:29:54;4.22;;;2.83;;
20611;SDS011;10465;42.686;23.364;2023-08-30T13:32:20;3.38;;;2.28;;
20611;SDS011;10465;42.686;23.364;2023-08-30T13:34:45;3.72;;;2.47;;
20611;SDS011;10465;42.686;23.364;2023-08-30T13:37:12;3.08;;;2.70;;
20611;SDS011;10465;42.686;23.364;2023-08-30T13:39:41;4.72;;;2.95;;
20611;SDS011;10465;42.686;23.364;2023-08-30T13:42:06;2.58;;;2.08;;
20611;SDS011;10465;42.686;23.364;2023-08-30T13:44:32;2.92;;;2.15;;
20611;SDS011;10465;42.686;23.364;2023-08-30T13:47:01;5.15;;;2.70;;
20611;SDS011;10465;42.686;23.364;2023-08-30T13:49:26;3.80;;;2.30;;
20611;SDS011;10465;42.686;23.364;2023-08-30T13:51:52;3.30;;;2.17;;
20611;SDS011;10465;42.686;23.364;2023-08-30T13:54:18;3.72;;;2.50;;
20611;SDS011;10465;42.686;23.364;2023-08-30T13:56:43;2.90;;;2.13;;
20611;SDS011;10465;42.686;23.364;2023-08-30T13:59:09;3.25;;;2.10;;
20611;SDS011;10465;42.686;23.364;2023-08-30T14:01:35;3.38;;;2.35;;
20611;SDS011;10465;42.686;23.364;2023-08-30T14:04:01;2.65;;;1.70;;
20611;SDS011;10465;42.686;23.364;2023-08-30T14:06:26;4.15;;;2.33;;
20611;SDS011;10465;42.686;23.364;2023-08-30T14:08:52;3.45;;;2.20;;
20611;SDS011;10465;42.686;23.364;2023-08-30T14:11:18;3.17;;;2.13;;
20611;SDS011;10465;42.686;23.364;2023-08-30T14:13:43;2.72;;;1.80;;
20611;SDS011;10465;42.686;23.364;2023-08-30T14:16:09;2.35;;;1.95;;
20611;SDS011;10465;42.686;23.364;2023-08-30T14:18:35;2.92;;;1.80;;
20611;SDS011;10465;42.686;23.364;2023-08-30T14:21:01;2.65;;;2.00;;
20611;SDS011;10465;42.686;23.364;2023-08-30T14:23:28;2.72;;;1.63;;
20611;SDS011;10465;42.686;23.364;2023-08-30T14:26:04;2.70;;;2.05;;
20611;SDS011;10465;42.686;23.364;2023-08-30T14:28:38;3.25;;;1.83;;
20611;SDS011;10465;42.686;23.364;2023-08-30T14:31:08;2.33;;;1.70;;
20611;SDS011;10465;42.686;23.364;2023-08-30T14:33:34;2.20;;;1.75;;
20611;SDS011;10465;42.686;23.364;2023-08-30T14:36:00;4.32;;;1.67;;
20611;SDS011;10465;42.686;23.364;2023-08-30T14:38:27;2.72;;;1.90;;